createdAt,value
2022-11-08T00:02:26.635Z,12.80
2022-11-08T00:04:53.720Z,12.90
2022-11-08T00:07:39.326Z,13.00
2022-11-08T00:10:25.758Z,13.10
2022-11-08T00:13:11.314Z,13.10
2022-11-08T00:15:38.860Z,13.00
2022-11-08T00:18:07.108Z,13.10
2022-11-08T00:20:34.625Z,13.00
2022-11-08T00:23:01.677Z,13.20
2022-11-08T00:25:28.598Z,13.10
2022-11-08T00:27:55.418Z,13.00
2022-11-08T00:30:22.385Z,13.10
2022-11-08T00:32:49.219Z,13.00
2022-11-08T00:35:16.308Z,13.00
2022-11-08T00:37:43.205Z,12.90
2022-11-08T00:40:10.802Z,12.90
2022-11-08T00:42:37.682Z,12.90
2022-11-08T00:45:05.184Z,13.10
2022-11-08T00:47:32.186Z,12.90
2022-11-08T00:49:59.048Z,12.90
2022-11-08T00:52:25.897Z,12.80
2022-11-08T00:54:52.705Z,12.80
2022-11-08T00:57:22.292Z,13.00
2022-11-08T00:59:57.929Z,12.80
2022-11-08T01:02:25.077Z,12.90
2022-11-08T01:04:51.889Z,12.80
2022-11-08T01:07:18.621Z,12.80
2022-11-08T01:09:45.420Z,12.80
2022-11-08T01:12:12.267Z,12.90
2022-11-08T01:14:39.044Z,12.90
2022-11-08T01:17:05.785Z,12.90
2022-11-08T01:19:32.543Z,12.80
2022-11-08T01:21:59.273Z,12.80
2022-11-08T01:24:26.021Z,12.80
2022-11-08T01:26:52.737Z,12.80
2022-11-08T01:29:19.513Z,12.70
2022-11-08T01:31:46.244Z,12.60
2022-11-08T01:34:18.888Z,12.50
2022-11-08T01:36:45.663Z,12.50
2022-11-08T01:39:12.418Z,12.40
2022-11-08T01:41:39.314Z,12.30
2022-11-08T01:44:06.185Z,12.30
2022-11-08T01:46:45.150Z,12.20
2022-11-08T01:49:29.842Z,12.20
2022-11-08T01:52:24.535Z,12.20
2022-11-08T01:55:10.252Z,12.20
2022-11-08T01:58:02.436Z,12.20
2022-11-08T02:00:36.803Z,12.20
2022-11-08T02:03:05.344Z,12.30
2022-11-08T02:05:33.608Z,12.30
2022-11-08T02:08:18.113Z,12.30
2022-11-08T02:10:49.396Z,12.30
2022-11-08T02:13:19.438Z,12.30
2022-11-08T02:15:47.457Z,12.40
2022-11-08T02:18:16.340Z,12.40
2022-11-08T02:20:58.213Z,12.40
2022-11-08T02:23:39.930Z,12.40
2022-11-08T02:26:06.898Z,12.50
2022-11-08T02:28:44.657Z,12.40
2022-11-08T02:31:13.467Z,12.40
2022-11-08T02:33:40.828Z,12.40
2022-11-08T02:36:09.338Z,12.50
2022-11-08T02:38:41.587Z,12.40
2022-11-08T02:41:08.477Z,12.50
2022-11-08T02:43:35.230Z,12.30
2022-11-08T02:46:02.088Z,12.50
2022-11-08T02:48:28.907Z,12.30
2022-11-08T02:50:56.055Z,12.20
2022-11-08T02:53:22.980Z,12.20
2022-11-08T02:55:49.782Z,12.20
2022-11-08T02:58:16.880Z,12.20
2022-11-08T03:00:44.187Z,12.10
2022-11-08T03:03:10.928Z,12.30
2022-11-08T03:05:37.988Z,12.10
2022-11-08T03:08:05.084Z,12.00
2022-11-08T03:10:31.905Z,12.00
2022-11-08T03:13:01.860Z,12.20
2022-11-08T03:15:29.294Z,11.90
2022-11-08T03:17:56.978Z,11.90
2022-11-08T03:20:28.297Z,12.00
2022-11-08T03:22:59.476Z,11.90
2022-11-08T03:25:26.957Z,11.90
2022-11-08T03:27:53.951Z,11.90
2022-11-08T03:30:21.476Z,11.90
2022-11-08T03:32:49.816Z,11.90
2022-11-08T03:35:17.163Z,11.90
2022-11-08T03:37:53.891Z,11.90
2022-11-08T03:40:21.095Z,11.90
2022-11-08T03:42:48.215Z,11.90
2022-11-08T03:45:16.107Z,11.80
2022-11-08T03:47:45.453Z,11.90
2022-11-08T03:50:14.107Z,11.80
2022-11-08T03:52:49.148Z,11.80
2022-11-08T03:55:17.272Z,11.80
2022-11-08T03:57:46.189Z,11.80
2022-11-08T04:00:15.528Z,11.80
2022-11-08T04:02:43.869Z,11.80
2022-11-08T04:05:13.586Z,11.70
2022-11-08T04:07:40.665Z,11.70
2022-11-08T04:10:09.311Z,11.70
2022-11-08T04:12:58.329Z,11.70
2022-11-08T04:15:25.627Z,11.70
2022-11-08T04:18:12.303Z,11.60
2022-11-08T04:20:59.037Z,11.70
2022-11-08T04:23:26.881Z,11.70
2022-11-08T04:26:01.782Z,11.60
2022-11-08T04:28:30.621Z,11.50
2022-11-08T04:31:02.947Z,11.50
2022-11-08T04:33:31.558Z,11.60
2022-11-08T04:36:23.768Z,11.50
2022-11-08T04:38:51.926Z,11.40
2022-11-08T04:41:21.637Z,11.40
2022-11-08T04:43:51.032Z,11.40
2022-11-08T04:46:20.417Z,11.40
2022-11-08T04:48:49.540Z,11.40
2022-11-08T04:51:18.921Z,11.30
2022-11-08T04:53:46.095Z,11.20
2022-11-08T04:56:15.444Z,11.20
2022-11-08T04:58:44.291Z,11.20
2022-11-08T05:01:16.848Z,11.10
2022-11-08T05:03:45.638Z,11.20
2022-11-08T05:06:15.687Z,11.20
2022-11-08T05:08:44.165Z,11.30
2022-11-08T05:11:14.234Z,11.20
2022-11-08T05:13:41.802Z,11.20
2022-11-08T05:16:12.789Z,11.20
2022-11-08T05:18:41.966Z,11.30
2022-11-08T05:21:30.211Z,11.30
2022-11-08T05:23:58.342Z,11.40
2022-11-08T05:26:25.503Z,11.40
2022-11-08T05:28:52.336Z,11.40
2022-11-08T05:31:19.120Z,11.50
2022-11-08T05:33:46.425Z,11.60
2022-11-08T05:36:15.177Z,11.60
2022-11-08T05:38:42.517Z,11.60
2022-11-08T05:41:09.424Z,11.60
2022-11-08T05:43:36.361Z,11.70
2022-11-08T05:46:03.200Z,11.50
2022-11-08T05:48:30.441Z,11.60
2022-11-08T05:50:57.623Z,11.70
2022-11-08T05:53:24.442Z,11.80
2022-11-08T05:55:56.405Z,11.80
2022-11-08T05:58:23.254Z,11.90
2022-11-08T06:00:49.990Z,11.90
2022-11-08T06:03:20.886Z,11.90
2022-11-08T06:05:49.606Z,11.90
2022-11-08T06:08:16.372Z,11.90
2022-11-08T06:10:43.079Z,11.90
2022-11-08T06:13:09.851Z,11.90
2022-11-08T06:15:36.590Z,11.90
2022-11-08T06:18:04.346Z,11.90
2022-11-08T06:20:31.175Z,11.90
2022-11-08T06:22:58.016Z,11.80
2022-11-08T06:25:24.807Z,11.90
2022-11-08T06:27:51.669Z,11.90
2022-11-08T06:30:18.599Z,11.80
2022-11-08T06:32:45.519Z,11.80
2022-11-08T06:35:12.221Z,11.90
2022-11-08T06:37:39.134Z,11.90
2022-11-08T06:40:06.517Z,11.90
2022-11-08T06:42:33.289Z,11.90
2022-11-08T06:45:00.010Z,11.90
2022-11-08T06:47:26.842Z,11.90
2022-11-08T06:49:53.592Z,11.90
2022-11-08T06:52:20.345Z,11.90
2022-11-08T06:54:47.270Z,11.90
2022-11-08T06:57:14.133Z,12.00
2022-11-08T06:59:40.882Z,12.00
2022-11-08T07:02:10.148Z,12.10
2022-11-08T07:04:37.229Z,12.10
2022-11-08T07:07:03.998Z,12.10
2022-11-08T07:09:30.778Z,12.20
2022-11-08T07:11:57.476Z,12.30
2022-11-08T07:14:24.233Z,12.30
2022-11-08T07:16:51.140Z,12.40
2022-11-08T07:19:18.016Z,12.50
2022-11-08T07:21:44.669Z,12.60
2022-11-08T07:24:11.800Z,12.70
2022-11-08T07:26:39.200Z,12.70
2022-11-08T07:29:06.072Z,12.70
2022-11-08T07:31:32.892Z,12.90
2022-11-08T07:33:59.807Z,12.90
2022-11-08T07:36:26.580Z,12.90
2022-11-08T07:38:53.466Z,12.90
2022-11-08T07:41:20.285Z,13.00
2022-11-08T07:43:48.625Z,12.90
2022-11-08T07:46:16.530Z,12.90
2022-11-08T07:48:43.306Z,13.00
2022-11-08T07:51:10.103Z,12.90
2022-11-08T07:53:36.861Z,13.00
2022-11-08T07:56:03.876Z,13.10
2022-11-08T07:58:30.561Z,13.10
2022-11-08T08:01:02.301Z,13.20
2022-11-08T08:03:29.582Z,13.40
2022-11-08T08:06:00.752Z,13.30
2022-11-08T08:08:28.911Z,13.30
2022-11-08T08:11:00.461Z,13.20
2022-11-08T08:13:29.309Z,13.40
2022-11-08T08:16:01.395Z,13.60
2022-11-08T08:18:29.637Z,13.60
2022-11-08T08:20:56.479Z,13.80
2022-11-08T08:23:23.306Z,14.00
2022-11-08T08:25:50.024Z,13.90
2022-11-08T08:28:17.685Z,13.90
2022-11-08T08:30:44.544Z,14.00
2022-11-08T08:33:27.860Z,14.00
2022-11-08T08:35:56.306Z,14.10
2022-11-08T08:38:24.058Z,14.10
2022-11-08T08:40:51.588Z,14.10
2022-11-08T08:43:19.130Z,14.00
2022-11-08T08:45:46.301Z,14.00
2022-11-08T08:48:13.024Z,14.00
2022-11-08T08:50:40.037Z,14.10
2022-11-08T08:53:07.099Z,14.00
2022-11-08T08:55:37.480Z,14.20
2022-11-08T08:58:04.628Z,14.30
2022-11-08T09:03:19.469Z,14.40
2022-11-08T09:05:46.854Z,14.60
2022-11-08T09:08:14.654Z,14.70
2022-11-08T09:10:41.849Z,14.70
2022-11-08T09:13:09.021Z,14.70
2022-11-08T09:15:36.045Z,14.70
2022-11-08T09:18:03.049Z,14.80
2022-11-08T09:20:30.427Z,14.80
2022-11-08T09:23:04.361Z,14.80
2022-11-08T09:25:31.846Z,14.90
2022-11-08T09:27:58.638Z,14.90
2022-11-08T09:30:26.545Z,15.00
2022-11-08T09:33:00.921Z,15.00
2022-11-08T09:35:30.342Z,15.10
2022-11-08T09:37:58.580Z,15.10
2022-11-08T09:40:38.162Z,15.30
2022-11-08T09:43:38.902Z,15.40
2022-11-08T09:46:13.695Z,15.50
2022-11-08T09:48:45.296Z,15.60
2022-11-08T09:51:15.985Z,15.40
2022-11-08T09:54:04.294Z,15.30
2022-11-08T09:56:35.337Z,15.20
2022-11-08T09:59:05.135Z,15.20
2022-11-08T10:01:34.739Z,15.40
2022-11-08T10:04:23.834Z,15.20
2022-11-08T10:07:04.927Z,15.30
2022-11-08T10:09:48.985Z,15.30
2022-11-08T10:12:28.004Z,15.30
2022-11-08T10:15:12.427Z,15.30
2022-11-08T10:17:51.143Z,15.40
2022-11-08T10:20:52.482Z,15.40
2022-11-08T10:23:46.032Z,15.40
2022-11-08T10:26:21.610Z,15.40
2022-11-08T10:29:00.087Z,15.40
2022-11-08T10:31:30.339Z,15.50
2022-11-08T10:33:59.200Z,15.50
2022-11-08T10:36:52.061Z,15.50
2022-11-08T10:39:25.552Z,15.50
2022-11-08T10:42:20.551Z,15.40
2022-11-08T10:44:47.597Z,15.40
2022-11-08T10:47:24.735Z,15.40
2022-11-08T10:49:53.908Z,15.40
2022-11-08T10:52:42.047Z,15.40
2022-11-08T10:55:10.093Z,15.40
2022-11-08T10:57:42.024Z,15.60
2022-11-08T11:00:21.135Z,15.70
2022-11-08T11:02:59.197Z,15.90
2022-11-08T11:05:28.587Z,16.10
2022-11-08T11:08:10.908Z,16.10
2022-11-08T11:10:43.558Z,16.20
2022-11-08T11:16:04.090Z,16.30
2022-11-08T11:18:50.843Z,16.20
2022-11-08T11:21:24.177Z,16.30
2022-11-08T11:24:08.072Z,16.30
2022-11-08T11:26:46.553Z,16.30
2022-11-08T11:29:21.603Z,16.20
2022-11-08T11:31:51.159Z,16.10
2022-11-08T11:34:17.937Z,16.10
2022-11-08T11:37:10.663Z,16.20
2022-11-08T11:40:01.115Z,16.30
2022-11-08T11:42:49.371Z,16.40
2022-11-08T11:45:18.484Z,16.50
2022-11-08T11:47:55.174Z,16.70
2022-11-08T11:50:36.398Z,16.60
2022-11-08T11:53:17.566Z,16.50
2022-11-08T11:55:57.005Z,16.30
2022-11-08T11:58:35.769Z,16.30
2022-11-08T12:01:22.585Z,16.30
2022-11-08T12:04:16.359Z,16.40
2022-11-08T12:07:13.057Z,16.50
2022-11-08T12:10:13.601Z,16.50
2022-11-08T12:13:03.768Z,16.40
2022-11-08T12:15:55.991Z,16.50
2022-11-08T12:18:43.608Z,16.40
2022-11-08T12:21:17.439Z,16.50
2022-11-08T12:24:22.327Z,16.50
2022-11-08T12:27:26.306Z,16.50
2022-11-08T12:30:19.307Z,16.60
2022-11-08T12:33:03.325Z,16.60
2022-11-08T12:35:36.957Z,16.70
2022-11-08T12:38:19.736Z,16.70
2022-11-08T12:40:58.600Z,16.80
2022-11-08T12:43:46.584Z,16.80
2022-11-08T12:46:18.339Z,16.80
2022-11-08T12:49:03.413Z,16.80
2022-11-08T12:51:52.500Z,16.80
2022-11-08T12:54:22.146Z,16.70
2022-11-08T12:56:51.117Z,16.70
2022-11-08T12:59:45.991Z,16.70
2022-11-08T13:02:21.447Z,16.90
2022-11-08T13:05:14.792Z,16.90
2022-11-08T13:07:50.429Z,17.00
2022-11-08T13:10:39.432Z,17.00
2022-11-08T13:13:09.459Z,17.00
2022-11-08T13:15:36.244Z,16.90
2022-11-08T13:18:06.113Z,17.20
2022-11-08T13:20:51.043Z,17.10
2022-11-08T13:23:32.963Z,17.20
2022-11-08T13:26:20.808Z,17.20
2022-11-08T13:28:48.652Z,17.10
2022-11-08T13:31:41.646Z,17.10
2022-11-08T13:34:26.674Z,16.90
2022-11-08T13:37:28.266Z,17.10
2022-11-08T13:40:10.000Z,17.10
2022-11-08T13:42:39.589Z,17.10
2022-11-08T13:45:18.465Z,17.00
2022-11-08T13:47:47.901Z,17.00
2022-11-08T13:50:30.028Z,17.10
2022-11-08T13:53:18.504Z,17.00
2022-11-08T13:55:48.075Z,17.00
2022-11-08T13:58:48.608Z,17.30
2022-11-08T14:01:18.459Z,17.10
2022-11-08T14:03:50.323Z,17.20
2022-11-08T14:06:42.598Z,17.10
2022-11-08T14:09:10.409Z,17.10
2022-11-08T14:11:43.104Z,17.00
2022-11-08T14:14:24.218Z,17.00
2022-11-08T14:17:12.497Z,17.00
2022-11-08T14:19:42.234Z,16.80
2022-11-08T14:22:16.735Z,16.70
2022-11-08T14:24:43.730Z,16.70
2022-11-08T14:27:13.717Z,16.70
2022-11-08T14:29:41.573Z,16.70
2022-11-08T14:32:17.741Z,16.70
2022-11-08T14:34:45.148Z,16.70
2022-11-08T14:37:24.635Z,16.70
2022-11-08T14:39:52.088Z,16.80
2022-11-08T14:42:26.203Z,16.80
2022-11-08T14:44:55.235Z,16.90
2022-11-08T14:47:30.070Z,16.90
2022-11-08T14:50:00.560Z,16.90
2022-11-08T14:52:32.593Z,16.80
2022-11-08T14:55:06.861Z,16.80
2022-11-08T14:57:40.679Z,16.70
2022-11-08T15:00:19.081Z,16.60
2022-11-08T15:03:03.181Z,16.50
2022-11-08T15:05:32.767Z,16.50
2022-11-08T15:08:01.369Z,16.40
2022-11-08T15:10:28.963Z,16.30
2022-11-08T15:12:56.441Z,16.30
2022-11-08T15:15:32.197Z,16.30
2022-11-08T15:18:18.173Z,16.10
2022-11-08T15:21:06.598Z,16.00
2022-11-08T15:23:43.468Z,16.00
2022-11-08T15:26:34.739Z,15.90
2022-11-08T15:29:19.593Z,15.90
2022-11-08T15:31:56.995Z,15.80
2022-11-08T15:34:39.637Z,15.70
2022-11-08T15:37:28.015Z,15.60
2022-11-08T15:39:55.527Z,15.60
2022-11-08T15:42:22.272Z,15.60
2022-11-08T15:45:23.992Z,15.50
2022-11-08T15:47:50.718Z,15.50
2022-11-08T15:50:30.457Z,15.40
2022-11-08T15:53:00.950Z,15.50
2022-11-08T15:55:39.247Z,15.40
2022-11-08T15:58:14.692Z,15.40
2022-11-08T16:00:46.149Z,15.30
2022-11-08T16:03:12.998Z,15.30
2022-11-08T16:05:39.706Z,15.20
2022-11-08T16:08:06.767Z,15.20
2022-11-08T16:10:53.596Z,15.20
2022-11-08T16:13:29.977Z,15.30
2022-11-08T16:15:58.416Z,15.10
2022-11-08T16:18:26.381Z,15.10
2022-11-08T16:20:54.078Z,15.10
2022-11-08T16:23:20.793Z,15.00
2022-11-08T16:25:52.844Z,15.00
2022-11-08T16:28:27.110Z,14.90
2022-11-08T16:30:54.033Z,14.90
2022-11-08T16:33:23.779Z,14.90
2022-11-08T16:35:54.552Z,14.90
2022-11-08T16:38:27.243Z,14.90
2022-11-08T16:40:54.537Z,15.00
2022-11-08T16:43:21.872Z,14.90
2022-11-08T16:46:05.005Z,14.90
2022-11-08T16:48:33.617Z,14.90
2022-11-08T16:51:06.601Z,14.80
2022-11-08T16:53:38.062Z,14.80
2022-11-08T16:56:04.862Z,14.80
2022-11-08T16:58:32.110Z,14.80
2022-11-08T17:00:58.895Z,14.80
2022-11-08T17:03:29.409Z,14.80
2022-11-08T17:05:57.054Z,14.80
2022-11-08T17:08:27.245Z,14.80
2022-11-08T17:10:55.589Z,14.80
2022-11-08T17:13:23.090Z,14.90
2022-11-08T17:15:50.768Z,14.90
2022-11-08T17:18:20.994Z,14.90
2022-11-08T17:20:48.338Z,15.00
2022-11-08T17:23:16.199Z,15.00
2022-11-08T17:25:47.343Z,15.00
2022-11-08T17:28:15.194Z,15.00
2022-11-08T17:30:44.281Z,15.00
2022-11-08T17:33:12.872Z,14.90
2022-11-08T17:35:43.886Z,15.00
2022-11-08T17:38:11.547Z,15.00
2022-11-08T17:40:38.765Z,15.10
2022-11-08T17:43:06.578Z,15.00
2022-11-08T17:45:34.395Z,15.10
2022-11-08T17:48:01.986Z,15.10
2022-11-08T17:50:29.214Z,15.10
2022-11-08T17:52:56.986Z,15.20
2022-11-08T17:55:23.745Z,15.20
2022-11-08T17:57:50.769Z,15.10
2022-11-08T18:00:17.831Z,15.00
2022-11-08T18:02:45.736Z,15.10
2022-11-08T18:05:12.520Z,15.10
2022-11-08T18:07:45.540Z,15.20
2022-11-08T18:10:16.424Z,15.20
2022-11-08T18:12:43.310Z,15.30
2022-11-08T18:15:11.302Z,15.30
2022-11-08T18:17:38.197Z,15.30
2022-11-08T18:20:05.532Z,15.30
2022-11-08T18:22:32.672Z,15.30
2022-11-08T18:24:59.404Z,15.30
2022-11-08T18:27:27.428Z,15.10
2022-11-08T18:29:54.267Z,15.30
2022-11-08T18:32:21.034Z,15.30
2022-11-08T18:34:47.950Z,15.30
2022-11-08T18:37:14.808Z,15.30
2022-11-08T18:39:41.531Z,15.30
2022-11-08T18:42:08.338Z,15.30
2022-11-08T18:44:37.130Z,15.20
2022-11-08T18:47:05.441Z,15.20
2022-11-08T18:49:32.247Z,15.10
2022-11-08T18:51:59.176Z,15.00
2022-11-08T18:54:26.192Z,15.00
2022-11-08T18:56:52.972Z,15.10
2022-11-08T18:59:19.767Z,15.10
2022-11-08T19:01:46.688Z,15.20
2022-11-08T19:04:13.445Z,15.20
2022-11-08T19:06:40.689Z,15.10
2022-11-08T19:09:10.018Z,15.10
2022-11-08T19:11:37.050Z,15.00
2022-11-08T19:14:03.991Z,14.90
2022-11-08T19:16:31.124Z,14.90
2022-11-08T19:18:57.968Z,14.90
2022-11-08T19:21:27.165Z,14.80
2022-11-08T19:23:58.672Z,14.70
2022-11-08T19:26:26.682Z,14.80
2022-11-08T19:28:57.605Z,14.70
2022-11-08T19:31:26.047Z,14.70
2022-11-08T19:33:54.022Z,14.70
2022-11-08T19:36:23.077Z,14.80
2022-11-08T19:38:50.299Z,14.80
2022-11-08T19:41:20.210Z,14.70
2022-11-08T19:43:48.076Z,14.80
2022-11-08T19:46:20.797Z,14.70
2022-11-08T19:48:51.011Z,14.80
2022-11-08T19:51:21.295Z,14.90
2022-11-08T19:53:48.641Z,14.90
2022-11-08T19:56:18.219Z,14.90
2022-11-08T19:58:45.823Z,14.90
2022-11-08T20:01:20.769Z,15.00
2022-11-08T20:03:48.535Z,15.00
2022-11-08T20:06:18.632Z,15.00
2022-11-08T20:08:50.910Z,15.00
2022-11-08T20:11:20.952Z,14.90
2022-11-08T20:13:49.260Z,14.90
2022-11-08T20:16:19.516Z,14.80
2022-11-08T20:18:47.045Z,14.80
2022-11-08T20:21:15.560Z,14.80
2022-11-08T20:23:43.264Z,14.70
2022-11-08T20:26:24.698Z,14.70
2022-11-08T20:28:56.542Z,14.70
2022-11-08T20:31:25.162Z,14.60
2022-11-08T20:33:53.618Z,14.70
2022-11-08T20:36:22.945Z,14.70
2022-11-08T20:38:54.705Z,14.60
2022-11-08T20:41:22.107Z,14.60
2022-11-08T20:43:48.961Z,14.40
2022-11-08T20:46:19.286Z,14.70
2022-11-08T20:48:51.612Z,14.60
2022-11-08T20:51:20.686Z,14.70
2022-11-08T20:53:48.265Z,14.60
2022-11-08T20:56:18.001Z,14.60
2022-11-08T20:58:46.433Z,14.60
2022-11-08T21:01:18.078Z,14.60
2022-11-08T21:03:45.773Z,14.50
2022-11-08T21:06:15.199Z,14.50
2022-11-08T21:11:30.352Z,14.60
2022-11-08T21:13:57.848Z,14.60
2022-11-08T21:16:30.454Z,14.60
2022-11-08T21:19:00.184Z,14.60
2022-11-08T21:21:27.246Z,14.50
2022-11-08T21:23:54.541Z,14.50
2022-11-08T21:26:22.837Z,14.50
2022-11-08T21:28:49.982Z,14.50
2022-11-08T21:31:17.128Z,14.50
2022-11-08T21:33:43.863Z,14.40
2022-11-08T21:36:14.043Z,14.50
2022-11-08T21:38:43.677Z,14.30
2022-11-08T21:41:10.966Z,14.30
2022-11-08T21:43:43.195Z,14.40
2022-11-08T21:46:24.818Z,14.50
2022-11-08T21:48:56.624Z,14.40
2022-11-08T21:51:23.747Z,14.20
2022-11-08T21:53:55.922Z,14.30
2022-11-08T21:56:26.047Z,14.40
2022-11-08T21:58:52.878Z,14.40
2022-11-08T22:01:22.284Z,14.50
2022-11-08T22:03:52.823Z,14.60
2022-11-08T22:06:21.471Z,14.70
2022-11-08T22:08:48.990Z,14.90
2022-11-08T22:11:15.938Z,14.60
2022-11-08T22:13:42.754Z,14.60
2022-11-08T22:16:09.536Z,14.60
2022-11-08T22:21:39.448Z,14.60
2022-11-08T22:24:08.621Z,14.60
2022-11-08T22:26:35.973Z,14.60
2022-11-08T22:29:03.323Z,14.60
2022-11-08T22:31:30.791Z,14.60
2022-11-08T22:33:58.881Z,14.70
2022-11-08T22:36:28.237Z,14.50
2022-11-08T22:38:55.521Z,14.60
2022-11-08T22:41:23.119Z,14.70
2022-11-08T22:43:51.158Z,14.70
2022-11-08T22:46:18.195Z,14.70
2022-11-08T22:48:45.446Z,14.80
2022-11-08T22:51:12.351Z,14.90
2022-11-08T22:53:39.623Z,14.80
2022-11-08T22:56:11.032Z,14.80
2022-11-08T22:58:38.864Z,14.90
2022-11-08T23:01:06.613Z,14.90
2022-11-08T23:03:33.726Z,15.00
2022-11-08T23:06:00.452Z,15.00
2022-11-08T23:08:27.557Z,14.90
2022-11-08T23:11:13.139Z,14.90
2022-11-08T23:13:59.011Z,14.90
2022-11-08T23:16:31.765Z,15.00
2022-11-08T23:19:18.237Z,14.90
2022-11-08T23:22:03.563Z,14.90
2022-11-08T23:24:31.603Z,14.90
2022-11-08T23:27:18.783Z,14.70
2022-11-08T23:30:04.592Z,14.90
2022-11-08T23:32:31.924Z,14.90
2022-11-08T23:34:58.805Z,14.90
2022-11-08T23:37:26.512Z,15.10
2022-11-08T23:40:11.767Z,15.00
2022-11-08T23:42:57.378Z,15.00
2022-11-08T23:45:24.153Z,15.10
2022-11-08T23:47:52.940Z,15.00
2022-11-08T23:50:19.913Z,15.00
2022-11-08T23:52:46.751Z,15.00
2022-11-08T23:55:13.542Z,14.90
2022-11-08T23:57:40.329Z,15.00
